Weather History for Llano, TX

Change the Weather History Date:

Wednesday, December 28, 2011

  Actual Average (KBMQ) Record (KBMQ)
Temperature  
Mean Temperature 50 °F -  
Max Temperature 68 °F 57 °F 71 °F (1996)
Min Temperature 32 °F 36 °F 30 °F (1997)
Degree Days  
Heating Degree Days 15    
Moisture  
Dew Point 33 °F    
Average Humidity 66    
Maximum Humidity 93    
Minimum Humidity 28    
Precipitation  
Precipitation 0.00 in - - ()
Sea Level Pressure  
Sea Level Pressure 30.11 in    
Wind  
Wind Speed 2 mph (NW)    
Max Wind Speed 17 mph    
Max Gust Speed 23 mph    
Visibility 10 miles    
Events      
Averages and records for this station are not official NWS values.
T = Trace of Precipitation, MM = Missing Value Source: NWS Daily Summary

Daily Weather History Graph

Daily Weather History Graph

Search for Another Location

Airport:

Trip Planner

Search our weather history database for the weather conditions in past years. The results will help you decide how hot, cold, wet, or windy it might be!

Date:

Astronomy

Dec. 28, 2011 Rise Set
Actual Time 7:31 AM CST 5:41 PM CST
Civil Twilight 7:04 AM CST 6:07 PM CST
Nautical Twilight 6:34 AM CST 6:37 PM CST
Astronomical Twilight 6:04 AM CST 7:07 PM CST
Moon 10:14 AM CST (12/28) 10:00 PM CST (12/28)
Length of Visible Light 11h 03m
Length of Day
10h 10m
Waxing Crescent, 18% of the Moon is Illuminated
Dec 28
Waxing Crescent
Jan 1
First Quarter
Jan 9
Full
Jan 16
Last Quarter
Jan 23
New

Hourly Weather History & Observations

Time (CST) Temp. Windchill Dew Point Humidity Pressure Visibility Wind Dir Wind Speed Gust Speed Precip Events Conditions
12:15 AM 33.8 °F - 32.0 °F 93% 30.23 in 10.0 mi Calm Calm - N/A   Clear
12:35 AM 33.8 °F - 32.0 °F 93% 30.22 in 10.0 mi Calm Calm - N/A   Clear
12:55 AM 33.8 °F - 32.0 °F 93% 30.21 in 10.0 mi Calm Calm - N/A   Clear
1:15 AM 33.8 °F - 32.0 °F 93% 30.21 in 10.0 mi Calm Calm - N/A   Clear
1:35 AM 33.8 °F - 32.0 °F 93% 30.20 in 10.0 mi Calm Calm - N/A   Clear
1:55 AM 32.0 °F - 30.2 °F 93% 30.18 in 10.0 mi Calm Calm - N/A   Clear
2:15 AM 33.8 °F - 32.0 °F 93% 30.19 in 10.0 mi Calm Calm - N/A   Clear
2:35 AM 32.0 °F - 30.2 °F 93% 30.18 in 10.0 mi Calm Calm - N/A   Clear
2:55 AM 33.8 °F - 32.0 °F 93% 30.17 in 10.0 mi Calm Calm - N/A   Clear
3:15 AM 33.8 °F - 32.0 °F 93% 30.16 in 10.0 mi Calm Calm - N/A   Clear
3:35 AM 35.6 °F - 32.0 °F 87% 30.15 in 10.0 mi Calm Calm - N/A   Clear
4:15 AM 37.4 °F - 32.0 °F 81% 30.14 in 10.0 mi Calm Calm - N/A   Clear
4:35 AM 37.4 °F - 32.0 °F 81% 30.13 in 10.0 mi Calm Calm - N/A   Clear
4:55 AM 37.4 °F - 32.0 °F 81% 30.13 in 10.0 mi Calm Calm - N/A   Clear
5:15 AM 39.2 °F - 32.0 °F 75% 30.12 in 10.0 mi Calm Calm - N/A   Clear
5:35 AM 39.2 °F - 32.0 °F 75% 30.14 in 10.0 mi Calm Calm - N/A   Clear
5:55 AM 35.6 °F - 32.0 °F 87% 30.13 in 10.0 mi Calm Calm - N/A   Clear
6:15 AM 35.6 °F - 32.0 °F 87% 30.13 in 10.0 mi Calm Calm - N/A   Clear
6:35 AM 35.6 °F - 32.0 °F 87% 30.12 in 10.0 mi Calm Calm - N/A   Clear
6:55 AM 35.6 °F - 32.0 °F 87% 30.13 in 10.0 mi Calm Calm - N/A   Clear
7:15 AM 33.8 °F - 32.0 °F 93% 30.13 in 10.0 mi Calm Calm - N/A   Clear
7:35 AM 33.8 °F - 32.0 °F 93% 30.14 in 10.0 mi Calm Calm - N/A   Clear
7:55 AM 33.8 °F - 32.0 °F 93% 30.14 in 10.0 mi Calm Calm - N/A   Clear
8:15 AM 35.6 °F - 32.0 °F 87% 30.16 in 10.0 mi Calm Calm - N/A   Clear
8:35 AM 37.4 °F - 33.8 °F 87% 30.15 in 10.0 mi Calm Calm - N/A   Clear
8:55 AM 39.2 °F - 33.8 °F 81% 30.15 in 10.0 mi Calm Calm - N/A   Partly Cloudy
9:15 AM 41.0 °F - 33.8 °F 76% 30.16 in 10.0 mi Calm Calm - N/A   Clear
9:35 AM 42.8 °F - 35.6 °F 76% 30.16 in 10.0 mi Calm Calm - N/A   Clear
9:55 AM 42.8 °F - 35.6 °F 76% 30.15 in 10.0 mi Calm Calm - N/A   Clear
10:15 AM 46.4 °F - 35.6 °F 66% 30.14 in 10.0 mi Calm Calm - N/A   Partly Cloudy
10:35 AM 48.2 °F - 35.6 °F 62% 30.14 in 10.0 mi Calm Calm - N/A   Partly Cloudy
10:55 AM 51.8 °F - 35.6 °F 54% 30.14 in 10.0 mi Calm Calm - N/A   Clear
11:15 AM 51.8 °F - 35.6 °F 54% 30.14 in 10.0 mi Calm Calm - N/A   Clear
11:35 AM 55.4 °F - 35.6 °F 47% 30.10 in 10.0 mi Calm Calm - N/A   Clear
11:55 AM 55.4 °F - 37.4 °F 51% 30.07 in 10.0 mi SSW 4.6 mph - N/A   Clear
12:15 PM 57.2 °F - 37.4 °F 48% 30.06 in 10.0 mi SW 5.8 mph - N/A   Clear
12:35 PM 60.8 °F - 39.2 °F 45% 30.05 in 10.0 mi WNW 3.5 mph - N/A   Clear
1:15 PM 62.6 °F - 39.2 °F 42% 30.02 in 10.0 mi NNW 4.6 mph - N/A   Clear
1:35 PM 66.2 °F - 39.2 °F 37% 30.00 in 10.0 mi WSW 13.8 mph 18.4 mph N/A   Clear
1:55 PM 68.0 °F - 37.4 °F 33% 30.00 in 10.0 mi WNW 11.5 mph - N/A   Clear
2:15 PM 68.0 °F - 33.8 °F 28% 30.00 in 10.0 mi WNW 13.8 mph 21.9 mph N/A   Clear
2:35 PM 68.0 °F - 33.8 °F 28% 30.00 in 10.0 mi West 11.5 mph 18.4 mph N/A   Clear
3:15 PM 66.2 °F - 32.0 °F 28% 30.00 in 10.0 mi WNW 10.4 mph 18.4 mph N/A   Clear
3:35 PM 66.2 °F - 32.0 °F 28% 30.01 in 10.0 mi NW 16.1 mph 23.0 mph N/A   Clear
3:55 PM 64.4 °F - 32.0 °F 30% 30.02 in 10.0 mi NW 16.1 mph 21.9 mph N/A   Clear
4:15 PM 64.4 °F - 32.0 °F 30% 30.04 in 10.0 mi NW 17.3 mph 20.7 mph N/A   Clear
4:35 PM 62.6 °F - 32.0 °F 32% 30.05 in 10.0 mi NNW 13.8 mph 20.7 mph N/A   Clear
4:55 PM 60.8 °F - 32.0 °F 34% 30.05 in 10.0 mi NNW 13.8 mph 17.3 mph N/A   Clear
5:15 PM 60.8 °F - 32.0 °F 34% 30.07 in 10.0 mi NNW 12.7 mph 19.6 mph N/A   Clear
5:35 PM 59.0 °F - 32.0 °F 36% 30.07 in 10.0 mi NNW 11.5 mph 18.4 mph N/A   Clear
5:55 PM 55.4 °F - 32.0 °F 41% 30.08 in 10.0 mi Calm Calm - N/A   Clear
6:15 PM 55.4 °F - 32.0 °F 41% 30.08 in 10.0 mi Calm Calm - N/A   Clear
6:35 PM 53.6 °F - 32.0 °F 44% 30.08 in 10.0 mi NW 5.8 mph - N/A   Clear
7:15 PM 48.2 °F - 33.8 °F 58% 30.10 in 10.0 mi Calm Calm - N/A   Clear
7:35 PM 46.4 °F - 33.8 °F 62% 30.10 in 10.0 mi Calm Calm - N/A   Clear
7:55 PM 44.6 °F - 33.8 °F 66% 30.12 in 10.0 mi Calm Calm - N/A   Clear
8:15 PM 42.8 °F - 33.8 °F 70% 30.11 in 10.0 mi Calm Calm - N/A   Clear
8:35 PM 41.0 °F 39.0 °F 33.8 °F 76% 30.11 in 10.0 mi North 3.5 mph - N/A   Clear
8:55 PM 41.0 °F - 33.8 °F 76% 30.11 in 10.0 mi Calm Calm - N/A   Clear
9:15 PM 39.2 °F - 33.8 °F 81% 30.11 in 10.0 mi Calm Calm - N/A   Clear
9:35 PM 39.2 °F - 33.8 °F 81% 30.12 in 10.0 mi Calm Calm - N/A   Clear
9:55 PM 41.0 °F - 32.0 °F 70% 30.13 in 10.0 mi Calm Calm - N/A   Clear
10:15 PM 39.2 °F - 33.8 °F 81% 30.13 in 10.0 mi Calm Calm - N/A   Clear
10:35 PM 37.4 °F - 32.0 °F 81% 30.13 in 10.0 mi Calm Calm - N/A   Clear
10:55 PM 37.4 °F 34.9 °F 32.0 °F 81% 30.13 in 10.0 mi North 3.5 mph - N/A   Clear
11:15 PM 37.4 °F - 32.0 °F 81% 30.13 in 10.0 mi Calm Calm - N/A   Clear
11:35 PM 39.2 °F - 32.0 °F 75% 30.12 in 10.0 mi Calm Calm - N/A   Clear
11:55 PM 37.4 °F - 32.0 °F 81% 30.12 in 10.0 mi Calm Calm - N/A   Clear